createdAt,value
2019-01-24T00:01:05.282Z,2.26
2019-01-24T00:03:33.451Z,2.26
2019-01-24T00:06:01.448Z,2.26
2019-01-24T00:08:29.501Z,2.26
2019-01-24T00:10:57.515Z,2.26
2019-01-24T00:13:25.531Z,2.27
2019-01-24T00:15:53.553Z,2.26
2019-01-24T00:18:21.718Z,2.27
2019-01-24T00:20:49.713Z,2.25
2019-01-24T00:23:17.752Z,2.24
2019-01-24T00:25:45.755Z,2.25
2019-01-24T00:28:14.029Z,2.23
2019-01-24T00:30:42.056Z,2.23
2019-01-24T00:33:10.324Z,2.23
2019-01-24T00:35:38.351Z,2.21
2019-01-24T00:38:06.447Z,2.22
2019-01-24T00:40:35.072Z,2.20
2019-01-24T00:43:03.145Z,2.20
2019-01-24T00:45:31.321Z,2.20
2019-01-24T00:47:59.375Z,2.21
2019-01-24T00:50:27.397Z,2.19
2019-01-24T00:52:55.451Z,2.18
2019-01-24T00:55:23.480Z,2.16
2019-01-24T00:57:51.811Z,2.15
2019-01-24T01:00:22.817Z,2.16
2019-01-24T01:02:51.115Z,2.16
2019-01-24T01:05:20.691Z,2.14
2019-01-24T01:07:49.244Z,2.14
2019-01-24T01:10:18.003Z,2.15
2019-01-24T01:12:47.239Z,2.14
2019-01-24T01:15:17.853Z,2.14
2019-01-24T01:17:46.893Z,2.13
2019-01-24T01:20:20.836Z,2.14
2019-01-24T01:22:49.294Z,2.13
2019-01-24T01:25:18.253Z,2.13
2019-01-24T01:27:46.902Z,2.12
2019-01-24T01:30:20.980Z,2.13
2019-01-24T01:32:49.684Z,2.12
2019-01-24T01:35:18.137Z,2.11
2019-01-24T01:37:46.688Z,2.10
2019-01-24T01:40:16.764Z,2.09
2019-01-24T01:42:44.989Z,2.08
2019-01-24T01:45:17.890Z,2.08
2019-01-24T01:47:46.370Z,2.08
2019-01-24T01:50:17.800Z,2.09
2019-01-24T01:52:46.279Z,2.08
2019-01-24T01:55:16.170Z,2.09
2019-01-24T01:57:44.335Z,2.09
2019-01-24T02:00:22.181Z,2.08
2019-01-24T02:02:50.323Z,2.08
2019-01-24T02:05:18.822Z,2.06
2019-01-24T02:07:47.842Z,2.06
2019-01-24T02:10:19.462Z,2.05
2019-01-24T02:12:48.123Z,2.06
2019-01-24T02:15:18.438Z,2.05
2019-01-24T02:17:46.573Z,2.04
2019-01-24T02:20:20.587Z,2.03
2019-01-24T02:22:49.039Z,2.02
2019-01-24T02:25:18.212Z,2.00
2019-01-24T02:27:46.190Z,1.99
2019-01-24T02:30:26.720Z,1.97
2019-01-24T02:32:55.016Z,1.95
2019-01-24T02:35:23.032Z,1.95
2019-01-24T02:37:51.052Z,1.96
2019-01-24T02:40:19.369Z,1.94
2019-01-24T02:42:47.341Z,1.93
2019-01-24T02:45:19.801Z,1.93
2019-01-24T02:47:48.222Z,1.93
2019-01-24T02:50:18.469Z,1.92
2019-01-24T02:52:47.581Z,1.91
2019-01-24T02:55:17.198Z,1.91
2019-01-24T02:57:45.280Z,1.91
2019-01-24T03:00:19.924Z,1.86
2019-01-24T03:02:48.033Z,1.88
2019-01-24T03:05:18.982Z,1.86
2019-01-24T03:07:47.678Z,1.85
2019-01-24T03:10:15.686Z,1.85
2019-01-24T03:12:46.481Z,1.85
2019-01-24T03:15:16.751Z,1.83
2019-01-24T03:17:44.743Z,1.83
2019-01-24T03:20:13.267Z,1.82
2019-01-24T03:22:41.284Z,1.79
2019-01-24T03:25:10.911Z,1.77
2019-01-24T03:27:39.212Z,1.77
2019-01-24T03:30:14.307Z,1.76
2019-01-24T03:32:42.305Z,1.73
2019-01-24T03:35:17.725Z,1.72
2019-01-24T03:37:45.734Z,1.70
2019-01-24T03:40:14.379Z,1.68
2019-01-24T03:42:42.906Z,1.64
2019-01-24T03:45:13.466Z,1.62
2019-01-24T03:47:41.905Z,1.62
2019-01-24T03:50:14.045Z,1.61
2019-01-24T03:52:43.745Z,1.60
2019-01-24T03:55:15.802Z,1.60
2019-01-24T03:57:43.778Z,1.58
2019-01-24T04:00:16.719Z,1.56
2019-01-24T04:02:44.557Z,1.55
2019-01-24T04:05:13.435Z,1.55
2019-01-24T04:07:41.411Z,1.55
2019-01-24T04:10:14.301Z,1.53
2019-01-24T04:12:42.334Z,1.53
2019-01-24T04:15:13.522Z,1.52
2019-01-24T04:17:41.578Z,1.53
2019-01-24T04:20:11.298Z,1.54
2019-01-24T04:22:39.289Z,1.53
2019-01-24T04:25:07.752Z,1.54
2019-01-24T04:27:35.810Z,1.51
2019-01-24T04:30:07.330Z,1.52
2019-01-24T04:32:35.335Z,1.53
2019-01-24T04:35:04.351Z,1.52
2019-01-24T04:37:32.329Z,1.52
2019-01-24T04:40:00.746Z,1.51
2019-01-24T04:42:28.767Z,1.50
2019-01-24T04:44:56.764Z,1.51
2019-01-24T04:47:24.790Z,1.51
2019-01-24T04:49:52.908Z,1.52
2019-01-24T04:52:20.935Z,1.54
2019-01-24T04:54:48.896Z,1.55
2019-01-24T04:57:17.017Z,1.56
2019-01-24T04:59:45.000Z,1.56
2019-01-24T05:02:13.166Z,1.56
2019-01-24T05:04:41.870Z,1.55
2019-01-24T05:07:10.194Z,1.56
2019-01-24T05:09:38.188Z,1.56
2019-01-24T05:12:07.267Z,1.57
2019-01-24T05:14:35.268Z,1.57
2019-01-24T05:17:03.649Z,1.57
2019-01-24T05:19:31.642Z,1.58
2019-01-24T05:21:59.811Z,1.58
2019-01-24T05:24:27.963Z,1.58
2019-01-24T05:26:55.972Z,1.60
2019-01-24T05:29:23.970Z,1.59
2019-01-24T05:31:51.963Z,1.61
2019-01-24T05:34:20.255Z,1.62
2019-01-24T05:36:48.274Z,1.62
2019-01-24T05:39:16.271Z,1.62
2019-01-24T05:41:44.279Z,1.63
2019-01-24T05:44:12.934Z,1.64
2019-01-24T05:46:40.929Z,1.66
2019-01-24T05:49:08.906Z,1.66
2019-01-24T05:51:37.032Z,1.66
2019-01-24T05:54:05.077Z,1.67
2019-01-24T05:56:33.190Z,1.67
2019-01-24T05:59:02.643Z,1.67
2019-01-24T06:01:31.280Z,1.66
2019-01-24T06:03:59.277Z,1.66
2019-01-24T06:06:27.278Z,1.66
2019-01-24T06:08:55.154Z,1.66
2019-01-24T06:11:23.226Z,1.65
2019-01-24T06:13:51.211Z,1.64
2019-01-24T06:16:19.255Z,1.64
2019-01-24T06:18:47.283Z,1.64
2019-01-24T06:21:15.280Z,1.65
2019-01-24T06:23:43.277Z,1.65
2019-01-24T06:26:12.807Z,1.66
2019-01-24T06:28:40.670Z,1.66
2019-01-24T06:31:08.626Z,1.68
2019-01-24T06:33:36.871Z,1.67
2019-01-24T06:36:04.866Z,1.69
2019-01-24T06:38:32.858Z,1.69
2019-01-24T06:41:00.845Z,1.70
2019-01-24T06:43:28.900Z,1.69
2019-01-24T06:45:56.911Z,1.71
2019-01-24T06:48:24.930Z,1.70
2019-01-24T06:50:52.912Z,1.70
2019-01-24T06:53:20.978Z,1.69
2019-01-24T06:55:49.026Z,1.70
2019-01-24T06:58:17.024Z,1.69
2019-01-24T07:00:45.296Z,1.68
2019-01-24T07:03:13.441Z,1.66
2019-01-24T07:05:41.432Z,1.67
2019-01-24T07:08:09.408Z,1.65
2019-01-24T07:10:37.432Z,1.65
2019-01-24T07:13:05.408Z,1.63
2019-01-24T07:15:33.654Z,1.64
2019-01-24T07:18:01.725Z,1.64
2019-01-24T07:20:29.916Z,1.67
2019-01-24T07:22:57.961Z,1.67
2019-01-24T07:25:27.741Z,1.67
2019-01-24T07:27:55.765Z,1.66
2019-01-24T07:30:23.782Z,1.66
2019-01-24T07:32:51.979Z,1.65
2019-01-24T07:35:19.981Z,1.64
2019-01-24T07:37:48.082Z,1.64
2019-01-24T07:40:17.058Z,1.64
2019-01-24T07:42:46.830Z,1.63
2019-01-24T07:45:18.740Z,1.62
2019-01-24T07:47:46.742Z,1.63
2019-01-24T07:50:15.459Z,1.62
2019-01-24T07:52:43.525Z,1.62
2019-01-24T07:55:12.048Z,1.64
2019-01-24T07:57:41.947Z,1.66
2019-01-24T08:00:15.649Z,1.67
2019-01-24T08:02:46.347Z,1.68
2019-01-24T08:05:14.847Z,1.69
2019-01-24T08:07:42.737Z,1.69
2019-01-24T08:10:13.889Z,1.70
2019-01-24T08:12:41.930Z,1.71
2019-01-24T08:15:12.980Z,1.72
2019-01-24T08:17:41.333Z,1.72
2019-01-24T08:20:17.440Z,1.74
2019-01-24T08:22:46.608Z,1.75
2019-01-24T08:25:15.107Z,1.76
2019-01-24T08:27:43.169Z,1.77
2019-01-24T08:30:20.164Z,1.79
2019-01-24T08:32:48.319Z,1.80
2019-01-24T08:35:16.361Z,1.80
2019-01-24T08:37:45.993Z,1.83
2019-01-24T08:40:15.183Z,1.84
2019-01-24T08:42:43.231Z,1.84
2019-01-24T08:45:11.681Z,1.87
2019-01-24T08:47:39.778Z,1.88
2019-01-24T08:50:12.867Z,1.90
2019-01-24T08:52:41.942Z,1.91
2019-01-24T08:55:24.018Z,1.93
2019-01-24T08:57:53.901Z,1.94
2019-01-24T09:00:21.987Z,1.97
2019-01-24T09:02:50.368Z,1.97
2019-01-24T09:05:18.910Z,1.99
2019-01-24T09:07:47.019Z,1.99
2019-01-24T09:10:19.224Z,2.01
2019-01-24T09:12:47.275Z,2.03
2019-01-24T09:15:15.333Z,2.03
2019-01-24T09:17:43.312Z,2.04
2019-01-24T09:20:14.717Z,2.06
2019-01-24T09:22:42.724Z,2.09
2019-01-24T09:25:11.056Z,2.12
2019-01-24T09:27:39.050Z,2.12
2019-01-24T09:30:11.054Z,2.13
2019-01-24T09:32:39.043Z,2.13
2019-01-24T09:35:08.381Z,2.14
2019-01-24T09:37:36.415Z,2.15
2019-01-24T09:40:06.321Z,2.16
2019-01-24T09:42:34.318Z,2.18
2019-01-24T09:45:04.148Z,2.16
2019-01-24T09:47:32.150Z,2.17
2019-01-24T09:50:00.232Z,2.16
2019-01-24T09:52:28.224Z,2.16
2019-01-24T09:54:56.242Z,2.17
2019-01-24T09:57:24.332Z,2.16
2019-01-24T09:59:52.323Z,2.16
2019-01-24T10:02:20.292Z,2.15
2019-01-24T10:04:48.319Z,2.16
2019-01-24T10:07:16.279Z,2.17
2019-01-24T10:09:44.294Z,2.19
2019-01-24T10:12:13.670Z,2.21
2019-01-24T10:14:41.734Z,2.22
2019-01-24T10:17:09.726Z,2.24
2019-01-24T10:19:38.473Z,2.25
2019-01-24T10:22:06.562Z,2.27
2019-01-24T10:24:34.584Z,2.27
2019-01-24T10:27:02.618Z,2.26
2019-01-24T10:29:30.621Z,2.26
2019-01-24T10:31:58.626Z,2.27
2019-01-24T10:34:26.787Z,2.28
2019-01-24T10:36:54.827Z,2.28
2019-01-24T10:39:22.878Z,2.29
2019-01-24T10:41:50.897Z,2.31
2019-01-24T10:44:18.984Z,2.33
2019-01-24T10:46:47.640Z,2.35
2019-01-24T10:49:17.606Z,2.38
2019-01-24T10:51:48.844Z,2.39
2019-01-24T10:54:18.252Z,2.40
2019-01-24T10:56:46.238Z,2.40
2019-01-24T10:59:14.638Z,2.42
2019-01-24T11:01:42.636Z,2.40
2019-01-24T11:04:11.030Z,2.40
2019-01-24T11:06:39.012Z,2.40
2019-01-24T11:09:08.721Z,2.41
2019-01-24T11:11:36.927Z,2.41
2019-01-24T11:14:05.109Z,2.41
2019-01-24T11:16:33.420Z,2.41
2019-01-24T11:19:01.448Z,2.42
2019-01-24T11:21:29.550Z,2.43
2019-01-24T11:23:57.646Z,2.44
2019-01-24T11:26:25.679Z,2.45
2019-01-24T11:28:53.668Z,2.45
2019-01-24T11:31:21.989Z,2.47
2019-01-24T11:33:50.022Z,2.48
2019-01-24T11:36:18.083Z,2.50
2019-01-24T11:38:46.145Z,2.50
2019-01-24T11:41:14.323Z,2.51
2019-01-24T11:43:42.389Z,2.51
2019-01-24T11:46:10.730Z,2.51
2019-01-24T11:48:39.353Z,2.49
2019-01-24T11:51:07.528Z,2.47
2019-01-24T11:53:35.696Z,2.46
2019-01-24T11:56:03.986Z,2.48
2019-01-24T11:58:31.968Z,2.46
2019-01-24T12:00:59.995Z,2.46
2019-01-24T12:03:29.086Z,2.44
2019-01-24T12:05:58.783Z,2.46
2019-01-24T12:08:27.956Z,2.49
2019-01-24T12:10:57.161Z,2.47
2019-01-24T12:13:26.812Z,2.46
2019-01-24T12:15:56.860Z,2.48
2019-01-24T12:18:26.729Z,2.48
2019-01-24T12:20:54.925Z,2.49
2019-01-24T12:23:23.127Z,2.45
2019-01-24T12:25:51.252Z,2.40
2019-01-24T12:28:19.354Z,2.35
2019-01-24T12:30:47.382Z,2.33
2019-01-24T12:33:15.384Z,2.30
2019-01-24T12:35:43.517Z,2.31
2019-01-24T12:38:12.550Z,2.33
2019-01-24T12:40:40.947Z,2.37
2019-01-24T12:43:09.189Z,2.38
2019-01-24T12:45:37.379Z,2.41
2019-01-24T12:48:06.880Z,2.42
2019-01-24T12:50:35.080Z,2.44
2019-01-24T12:53:03.790Z,2.44
2019-01-24T12:55:31.750Z,2.43
2019-01-24T12:57:59.784Z,2.46
2019-01-24T13:00:37.349Z,2.49
2019-01-24T13:03:06.434Z,2.51
2019-01-24T13:05:34.471Z,2.52
2019-01-24T13:08:02.513Z,2.52
2019-01-24T13:10:30.754Z,2.56
2019-01-24T13:12:58.763Z,2.59
2019-01-24T13:15:29.490Z,2.61
2019-01-24T13:17:57.495Z,2.64
2019-01-24T13:20:25.557Z,2.66
2019-01-24T13:22:53.659Z,2.67
2019-01-24T13:25:30.352Z,2.68
2019-01-24T13:27:58.448Z,2.70
2019-01-24T13:30:29.159Z,2.71
2019-01-24T13:32:57.357Z,2.73
2019-01-24T13:35:25.535Z,2.73
2019-01-24T13:37:53.554Z,2.70
2019-01-24T13:40:25.142Z,2.70
2019-01-24T13:42:54.241Z,2.70
2019-01-24T13:45:25.676Z,2.72
2019-01-24T13:47:53.851Z,2.74
2019-01-24T13:50:21.876Z,2.73
2019-01-24T13:52:49.924Z,2.71
2019-01-24T13:55:17.963Z,2.69
2019-01-24T13:57:45.928Z,2.70
2019-01-24T14:00:25.187Z,2.73
2019-01-24T14:03:16.299Z,2.78
2019-01-24T14:05:44.324Z,2.79
2019-01-24T14:08:12.291Z,2.76
2019-01-24T14:10:40.349Z,2.74
2019-01-24T14:13:08.334Z,2.70
2019-01-24T14:15:36.412Z,2.66
2019-01-24T14:18:05.557Z,2.63
2019-01-24T14:20:33.738Z,2.62
2019-01-24T14:23:01.818Z,2.63
2019-01-24T14:25:33.780Z,2.64
2019-01-24T14:28:01.789Z,2.65
2019-01-24T14:30:29.802Z,2.64
2019-01-24T14:32:57.815Z,2.61
2019-01-24T14:35:26.059Z,2.57
2019-01-24T14:37:54.477Z,2.55
2019-01-24T14:40:23.003Z,2.57
2019-01-24T14:42:51.037Z,2.59
2019-01-24T14:45:21.818Z,2.60
2019-01-24T14:47:49.847Z,2.61
2019-01-24T14:50:22.856Z,2.58
2019-01-24T14:52:52.309Z,2.56
2019-01-24T14:55:20.689Z,2.54
2019-01-24T14:57:49.129Z,2.52
2019-01-24T15:00:29.782Z,2.51
2019-01-24T15:02:58.040Z,2.49
2019-01-24T15:05:26.203Z,2.42
2019-01-24T15:07:54.187Z,2.40
2019-01-24T15:10:23.310Z,2.36
2019-01-24T15:12:51.426Z,2.34
2019-01-24T15:15:20.095Z,2.31
2019-01-24T15:17:48.136Z,2.30
2019-01-24T15:20:18.721Z,2.28
2019-01-24T15:22:46.949Z,2.29
2019-01-24T15:25:14.972Z,2.33
2019-01-24T15:27:44.508Z,2.36
2019-01-24T15:30:18.011Z,2.40
2019-01-24T15:32:45.995Z,2.43
2019-01-24T15:35:14.382Z,2.43
2019-01-24T15:37:42.546Z,2.43
2019-01-24T15:40:18.316Z,2.42
2019-01-24T15:42:46.427Z,2.42
2019-01-24T15:45:15.129Z,2.40
2019-01-24T15:47:43.428Z,2.38
2019-01-24T15:50:13.979Z,2.37
2019-01-24T15:52:43.361Z,2.36
2019-01-24T15:55:11.946Z,2.36
2019-01-24T15:57:40.004Z,2.34
2019-01-24T16:00:22.371Z,2.34
2019-01-24T16:02:50.553Z,2.31
2019-01-24T16:05:18.901Z,2.27
2019-01-24T16:07:47.411Z,2.23
2019-01-24T16:10:19.266Z,2.19
2019-01-24T16:12:47.350Z,2.17
2019-01-24T16:15:22.675Z,2.15
2019-01-24T16:17:52.217Z,2.10
2019-01-24T16:20:22.301Z,2.07
2019-01-24T16:22:50.300Z,2.06
2019-01-24T16:25:18.763Z,2.05
2019-01-24T16:27:46.810Z,2.07
2019-01-24T16:30:20.256Z,2.09
2019-01-24T16:32:48.450Z,2.09
2019-01-24T16:35:17.500Z,2.09
2019-01-24T16:37:45.687Z,2.08
2019-01-24T16:40:16.852Z,2.06
2019-01-24T16:42:46.295Z,2.04
2019-01-24T16:45:18.805Z,2.04
2019-01-24T16:47:47.232Z,2.05
2019-01-24T16:50:17.933Z,2.07
2019-01-24T16:52:46.792Z,2.10
2019-01-24T16:55:16.209Z,2.12
2019-01-24T16:57:44.850Z,2.15
2019-01-24T17:00:30.357Z,2.16
2019-01-24T17:02:58.421Z,2.17
2019-01-24T17:05:26.693Z,2.18
2019-01-24T17:07:54.879Z,2.19
2019-01-24T17:10:22.977Z,2.19
2019-01-24T17:12:51.080Z,2.18
2019-01-24T17:15:19.610Z,2.18
2019-01-24T17:17:47.769Z,2.20
2019-01-24T17:20:20.075Z,2.19
2019-01-24T17:22:48.563Z,2.21
2019-01-24T17:25:17.689Z,2.21
2019-01-24T17:27:46.330Z,2.21
2019-01-24T17:30:20.909Z,2.18
2019-01-24T17:32:49.399Z,2.14
2019-01-24T17:35:17.488Z,2.12
2019-01-24T17:37:45.861Z,2.11
2019-01-24T17:40:21.167Z,2.10
2019-01-24T17:42:50.441Z,2.09
2019-01-24T17:45:19.209Z,2.07
2019-01-24T17:47:47.378Z,2.06
2019-01-24T17:50:17.935Z,2.04
2019-01-24T17:52:46.745Z,2.04
2019-01-24T17:55:22.013Z,2.04
2019-01-24T17:57:50.116Z,2.03
2019-01-24T18:00:20.469Z,2.03
2019-01-24T18:02:50.507Z,2.04
2019-01-24T18:05:19.740Z,2.03
2019-01-24T18:07:48.204Z,2.04
2019-01-24T20:29:04.846Z,1.78
2019-01-24T20:31:51.150Z,1.79
2019-01-24T20:34:21.079Z,1.70
2019-01-24T20:36:50.531Z,1.68
2019-01-24T20:39:19.777Z,1.69
2019-01-24T20:41:48.426Z,1.70
2019-01-24T20:44:16.783Z,1.70
2019-01-24T20:46:46.510Z,1.70
2019-01-24T20:49:14.612Z,1.70
2019-01-24T20:51:42.799Z,1.70
2019-01-24T20:54:11.376Z,1.71
2019-01-24T20:56:40.725Z,1.70
2019-01-24T20:59:08.842Z,1.69
2019-01-24T21:01:38.355Z,1.68
2019-01-24T21:04:08.204Z,1.65
2019-01-24T21:06:36.806Z,1.63
2019-01-24T21:09:14.510Z,1.63
2019-01-24T21:11:38.468Z,1.64
2019-01-24T21:14:13.020Z,1.66
2019-01-24T21:16:41.965Z,1.67
2019-01-24T21:19:10.319Z,1.71
2019-01-24T21:21:38.720Z,1.74
2019-01-24T21:24:07.077Z,1.74
2019-01-24T21:26:35.159Z,1.74
2019-01-24T21:29:03.235Z,1.73
2019-01-24T21:31:31.320Z,1.71
2019-01-24T21:33:59.442Z,1.71
2019-01-24T21:36:27.516Z,1.71
2019-01-24T21:38:55.981Z,1.72
2019-01-24T21:41:24.014Z,1.74
2019-01-24T21:43:52.127Z,1.76
2019-01-24T21:46:21.437Z,1.77
2019-01-24T21:48:49.549Z,1.80
2019-01-24T21:51:17.602Z,1.80
2019-01-24T21:53:45.700Z,1.79
2019-01-24T21:56:13.765Z,1.80
2019-01-24T21:58:41.973Z,1.81
2019-01-24T22:01:10.008Z,1.84
2019-01-24T22:03:38.114Z,1.84
2019-01-24T22:06:06.257Z,1.83
2019-01-24T22:08:34.474Z,1.80
2019-01-24T22:11:03.742Z,1.80
2019-01-24T22:13:31.960Z,1.79
2019-01-24T22:16:00.000Z,1.78
2019-01-24T22:18:28.371Z,1.79
2019-01-24T22:20:56.585Z,1.80
2019-01-24T22:23:24.653Z,1.80
2019-01-24T22:25:52.726Z,1.80
2019-01-24T22:28:21.540Z,1.78
2019-01-24T22:30:53.164Z,1.78
2019-01-24T22:33:21.269Z,1.78
2019-01-24T22:35:49.592Z,1.78
2019-01-24T22:38:17.910Z,1.77
2019-01-24T22:40:49.731Z,1.76
2019-01-24T22:43:17.819Z,1.74
2019-01-24T22:45:45.875Z,1.72
2019-01-24T22:48:13.965Z,1.72
2019-01-24T22:50:42.028Z,1.72
2019-01-24T22:53:10.215Z,1.71
2019-01-24T22:55:39.379Z,1.72
2019-01-24T22:58:08.918Z,1.71
2019-01-24T23:00:50.245Z,1.71
2019-01-24T23:03:30.488Z,1.71
2019-01-24T23:05:58.526Z,1.70
2019-01-24T23:08:27.702Z,1.70
2019-01-24T23:10:56.967Z,1.70
2019-01-24T23:13:25.069Z,1.70
2019-01-24T23:15:53.138Z,1.68
2019-01-24T23:18:22.146Z,1.67
2019-01-24T23:20:50.208Z,1.67
2019-01-24T23:23:18.597Z,1.68
2019-01-24T23:25:46.918Z,1.67
2019-01-24T23:28:15.068Z,1.68
2019-01-24T23:30:43.107Z,1.66
2019-01-24T23:33:12.910Z,1.66
2019-01-24T23:35:41.288Z,1.60
2019-01-24T23:38:09.421Z,1.56
2019-01-24T23:40:37.501Z,1.49
2019-01-24T23:43:05.664Z,1.43
2019-01-24T23:45:33.747Z,1.40
2019-01-24T23:48:01.815Z,1.32
2019-01-24T23:50:29.867Z,1.23
2019-01-24T23:52:57.992Z,1.20
2019-01-24T23:55:26.077Z,1.15
2019-01-24T23:57:54.208Z,1.13
